AUA230 EDDB-LOWW
Flight info
| Callsign | AUA230 |
|---|---|
| Flight time | 0h 59m |
| Altitude | 29000 |
| Route | LUROS4B/06L LUROS M725 HDO DCT EVIKU DCT BITSI DCT MIKOV MIKOV8W |
| Aircraft | A319/M-SDE3FGHIRWY/LB1 |
Departure
| Time | 2026-05-06 11:37 |
|---|---|
| Airport | Berlin Brandenburg Airport (EDDB) |
Arrival
| Time | 2026-05-06 12:36 |
|---|---|
| Airport | Vienna International Airport (LOWW) |
| Time | Latitude | Longitude | Altitude | Speed | Heading |
|---|---|---|---|---|---|
| 2026-05-06 11:12 | 52.36796 | 13.50804 | 156 ft | 0 kts | 159° |
| 2026-05-06 11:26 | 52.36811 | 13.50795 | 155 ft | 4 kts | 156° |
| 2026-05-06 11:26 | 52.36833 | 13.50780 | 155 ft | 1 kts | 163° |
| 2026-05-06 11:27 | 52.36856 | 13.50767 | 156 ft | 4 kts | 168° |
| 2026-05-06 11:27 | 52.36875 | 13.50777 | 156 ft | 4 kts | 228° |
| 2026-05-06 11:27 | 52.36889 | 13.50814 | 155 ft | 4 kts | 250° |
| 2026-05-06 11:27 | 52.36896 | 13.50845 | 155 ft | 0 kts | 249° |
| 2026-05-06 11:30 | 52.36895 | 13.50838 | 155 ft | 2 kts | 248° |
| 2026-05-06 11:31 | 52.36886 | 13.50805 | 155 ft | 7 kts | 248° |
| 2026-05-06 11:31 | 52.36867 | 13.50726 | 155 ft | 8 kts | 249° |
| 2026-05-06 11:31 | 52.36847 | 13.50633 | 155 ft | 9 kts | 251° |
| 2026-05-06 11:31 | 52.36822 | 13.50532 | 155 ft | 10 kts | 248° |
| 2026-05-06 11:32 | 52.36797 | 13.50429 | 157 ft | 10 kts | 249° |
| 2026-05-06 11:32 | 52.36770 | 13.50309 | 154 ft | 13 kts | 249° |
| 2026-05-06 11:32 | 52.36791 | 13.50181 | 153 ft | 14 kts | 336° |
| 2026-05-06 11:32 | 52.36889 | 13.50119 | 151 ft | 16 kts | 339° |
| 2026-05-06 11:33 | 52.36897 | 13.50036 | 150 ft | 9 kts | 252° |
| 2026-05-06 11:33 | 52.36868 | 13.49917 | 147 ft | 14 kts | 249° |
| 2026-05-06 11:33 | 52.36833 | 13.49769 | 148 ft | 14 kts | 250° |
| 2026-05-06 11:33 | 52.36794 | 13.49604 | 148 ft | 17 kts | 249° |
| 2026-05-06 11:34 | 52.36750 | 13.49419 | 148 ft | 18 kts | 249° |
| 2026-05-06 11:34 | 52.36704 | 13.49225 | 148 ft | 19 kts | 248° |
| 2026-05-06 11:34 | 52.36657 | 13.49024 | 148 ft | 19 kts | 249° |
| 2026-05-06 11:34 | 52.36607 | 13.48816 | 148 ft | 20 kts | 249° |
| 2026-05-06 11:35 | 52.36556 | 13.48601 | 148 ft | 20 kts | 248° |
| 2026-05-06 11:35 | 52.36517 | 13.48428 | 148 ft | 14 kts | 264° |
| 2026-05-06 11:35 | 52.36578 | 13.48333 | 149 ft | 13 kts | 339° |
| 2026-05-06 11:35 | 52.36664 | 13.48285 | 152 ft | 12 kts | 353° |
| 2026-05-06 11:36 | 52.36728 | 13.48337 | 155 ft | 10 kts | 55° |
| 2026-05-06 11:36 | 52.36757 | 13.48449 | 155 ft | 14 kts | 69° |
| 2026-05-06 11:36 | 52.36893 | 13.49018 | 156 ft | 95 kts | 68° |
| 2026-05-06 11:36 | 52.37222 | 13.50388 | 165 ft | 160 kts | 68° |
| 2026-05-06 11:37 | 52.37635 | 13.52141 | 771 ft | 169 kts | 69° |
| 2026-05-06 11:37 | 52.38072 | 13.54015 | 1416 ft | 186 kts | 69° |
| 2026-05-06 11:37 | 52.38580 | 13.56161 | 1901 ft | 215 kts | 67° |
| 2026-05-06 11:37 | 52.39146 | 13.58541 | 2553 ft | 239 kts | 67° |
| 2026-05-06 11:38 | 52.39774 | 13.61187 | 3356 ft | 257 kts | 68° |
| 2026-05-06 11:38 | 52.40433 | 13.63971 | 4420 ft | 265 kts | 67° |
| 2026-05-06 11:38 | 52.41105 | 13.66828 | 5410 ft | 273 kts | 68° |
| 2026-05-06 11:38 | 52.41796 | 13.69779 | 6364 ft | 281 kts | 68° |
| 2026-05-06 11:39 | 52.42506 | 13.72814 | 7263 ft | 289 kts | 68° |
| 2026-05-06 11:39 | 52.43247 | 13.75930 | 8176 ft | 297 kts | 66° |
| 2026-05-06 11:39 | 52.44280 | 13.78892 | 9077 ft | 304 kts | 52° |
| 2026-05-06 11:39 | 52.45719 | 13.81478 | 9942 ft | 310 kts | 39° |
| 2026-05-06 11:40 | 52.47392 | 13.83908 | 10368 ft | 334 kts | 39° |
| 2026-05-06 11:40 | 52.49188 | 13.86516 | 10877 ft | 352 kts | 39° |
| 2026-05-06 11:40 | 52.51036 | 13.89218 | 11676 ft | 359 kts | 40° |
| 2026-05-06 11:40 | 52.52913 | 13.91973 | 12563 ft | 365 kts | 40° |
| 2026-05-06 11:41 | 52.54783 | 13.94765 | 13389 ft | 372 kts | 44° |
| 2026-05-06 11:41 | 52.56345 | 13.98189 | 14097 ft | 379 kts | 62° |
| 2026-05-06 11:41 | 52.57206 | 14.02286 | 14809 ft | 382 kts | 83° |
| 2026-05-06 11:41 | 52.57207 | 14.06628 | 15557 ft | 381 kts | 103° |
| 2026-05-06 11:42 | 52.56340 | 14.10701 | 16312 ft | 377 kts | 124° |
| 2026-05-06 11:42 | 52.54729 | 14.14034 | 17083 ft | 371 kts | 143° |
| 2026-05-06 11:42 | 52.52595 | 14.16310 | 17833 ft | 364 kts | 162° |
| 2026-05-06 11:42 | 52.50184 | 14.17363 | 18507 ft | 358 kts | 178° |
| 2026-05-06 11:43 | 52.47700 | 14.17704 | 19201 ft | 359 kts | 180° |
| 2026-05-06 11:43 | 52.45202 | 14.18025 | 19894 ft | 362 kts | 180° |
| 2026-05-06 11:43 | 52.42684 | 14.18342 | 20570 ft | 364 kts | 180° |
| 2026-05-06 11:44 | 52.37582 | 14.18980 | 21948 ft | 370 kts | 179° |
| 2026-05-06 11:44 | 52.35003 | 14.19303 | 22616 ft | 373 kts | 179° |
| 2026-05-06 11:44 | 52.32408 | 14.19631 | 23263 ft | 376 kts | 179° |
| 2026-05-06 11:44 | 52.29797 | 14.19965 | 23798 ft | 379 kts | 179° |
| 2026-05-06 11:45 | 52.27143 | 14.20305 | 24308 ft | 382 kts | 179° |
| 2026-05-06 11:45 | 52.24479 | 14.20647 | 24797 ft | 384 kts | 179° |
| 2026-05-06 11:45 | 52.21804 | 14.20987 | 25274 ft | 387 kts | 179° |
| 2026-05-06 11:45 | 52.19114 | 14.21325 | 25763 ft | 390 kts | 179° |
| 2026-05-06 11:46 | 52.16396 | 14.21672 | 26252 ft | 392 kts | 179° |
| 2026-05-06 11:46 | 52.13671 | 14.22020 | 26742 ft | 395 kts | 180° |
| 2026-05-06 11:46 | 52.10967 | 14.22363 | 27234 ft | 397 kts | 180° |
| 2026-05-06 11:46 | 52.08160 | 14.22715 | 27743 ft | 399 kts | 180° |
| 2026-05-06 11:47 | 52.05417 | 14.23058 | 28237 ft | 401 kts | 180° |
| 2026-05-06 11:47 | 52.02625 | 14.23409 | 28680 ft | 404 kts | 180° |
| 2026-05-06 11:47 | 51.97028 | 14.24117 | 28787 ft | 402 kts | 180° |
| 2026-05-06 11:48 | 51.91458 | 14.24816 | 28790 ft | 401 kts | 181° |
| 2026-05-06 11:48 | 51.85901 | 14.25505 | 28788 ft | 400 kts | 181° |
| 2026-05-06 11:49 | 51.80356 | 14.26201 | 28787 ft | 399 kts | 181° |
| 2026-05-06 11:49 | 51.74818 | 14.26892 | 28784 ft | 399 kts | 181° |
| 2026-05-06 11:50 | 51.69279 | 14.27569 | 28784 ft | 399 kts | 181° |
| 2026-05-06 11:50 | 51.63742 | 14.28254 | 28781 ft | 399 kts | 181° |
| 2026-05-06 11:51 | 51.58202 | 14.28938 | 28785 ft | 399 kts | 181° |
| 2026-05-06 11:51 | 51.52707 | 14.29606 | 28780 ft | 399 kts | 181° |
| 2026-05-06 11:52 | 51.47170 | 14.30289 | 28779 ft | 399 kts | 181° |
| 2026-05-06 11:52 | 51.41637 | 14.30976 | 28779 ft | 399 kts | 181° |
| 2026-05-06 11:53 | 51.37006 | 14.31544 | 28771 ft | 398 kts | 181° |
| 2026-05-06 11:53 | 51.31513 | 14.32208 | 28782 ft | 398 kts | 181° |
| 2026-05-06 11:54 | 51.25993 | 14.32874 | 28777 ft | 398 kts | 181° |
| 2026-05-06 11:54 | 51.20474 | 14.33536 | 28778 ft | 397 kts | 181° |
| 2026-05-06 11:55 | 51.14958 | 14.34206 | 28776 ft | 398 kts | 181° |
| 2026-05-06 11:55 | 51.09439 | 14.34882 | 28777 ft | 398 kts | 181° |
| 2026-05-06 11:56 | 51.03918 | 14.35547 | 28773 ft | 398 kts | 181° |
| 2026-05-06 11:56 | 50.98422 | 14.36197 | 28773 ft | 398 kts | 181° |
| 2026-05-06 11:57 | 50.92892 | 14.36934 | 28772 ft | 402 kts | 177° |
| 2026-05-06 11:57 | 50.87397 | 14.38908 | 28782 ft | 406 kts | 173° |
| 2026-05-06 11:58 | 50.81898 | 14.40951 | 28780 ft | 406 kts | 173° |
| 2026-05-06 11:58 | 50.76394 | 14.42972 | 28784 ft | 406 kts | 173° |
| 2026-05-06 11:59 | 50.70890 | 14.45011 | 28784 ft | 406 kts | 173° |
| 2026-05-06 11:59 | 50.65389 | 14.47049 | 28785 ft | 406 kts | 173° |
| 2026-05-06 12:00 | 50.59880 | 14.49076 | 28788 ft | 406 kts | 173° |
| 2026-05-06 12:00 | 50.54380 | 14.51091 | 28800 ft | 405 kts | 173° |
| 2026-05-06 12:01 | 50.48935 | 14.53200 | 28802 ft | 409 kts | 168° |
| 2026-05-06 12:01 | 50.43870 | 14.57602 | 28809 ft | 427 kts | 147° |
| 2026-05-06 12:02 | 50.39530 | 14.64091 | 28806 ft | 431 kts | 143° |
| 2026-05-06 12:02 | 50.35216 | 14.70643 | 28811 ft | 431 kts | 143° |
| 2026-05-06 12:03 | 50.30903 | 14.77143 | 28808 ft | 430 kts | 143° |
| 2026-05-06 12:03 | 50.26612 | 14.83604 | 28808 ft | 430 kts | 143° |
| 2026-05-06 12:04 | 50.22295 | 14.90086 | 28809 ft | 430 kts | 143° |
| 2026-05-06 12:04 | 50.17974 | 14.96558 | 28810 ft | 430 kts | 143° |
| 2026-05-06 12:05 | 50.13643 | 15.03035 | 28811 ft | 431 kts | 143° |
| 2026-05-06 12:05 | 50.09315 | 15.09490 | 28817 ft | 431 kts | 143° |
| 2026-05-06 12:06 | 50.04986 | 15.15934 | 28817 ft | 431 kts | 143° |
| 2026-05-06 12:06 | 50.00669 | 15.22330 | 28821 ft | 431 kts | 143° |
| 2026-05-06 12:07 | 49.96314 | 15.28756 | 28825 ft | 431 kts | 143° |
| 2026-05-06 12:07 | 49.92054 | 15.35067 | 28342 ft | 414 kts | 143° |
| 2026-05-06 12:08 | 49.89986 | 15.38132 | 27789 ft | 409 kts | 143° |
| 2026-05-06 12:08 | 49.87935 | 15.41154 | 27198 ft | 405 kts | 143° |
| 2026-05-06 12:08 | 49.85900 | 15.44138 | 26638 ft | 401 kts | 143° |
| 2026-05-06 12:08 | 49.83876 | 15.47096 | 26092 ft | 397 kts | 143° |
| 2026-05-06 12:09 | 49.81869 | 15.50027 | 25562 ft | 394 kts | 143° |
| 2026-05-06 12:09 | 49.79882 | 15.52934 | 25054 ft | 391 kts | 143° |
| 2026-05-06 12:09 | 49.77909 | 15.55820 | 24568 ft | 388 kts | 143° |
| 2026-05-06 12:09 | 49.75952 | 15.58675 | 24115 ft | 386 kts | 143° |
| 2026-05-06 12:10 | 49.74006 | 15.61510 | 23658 ft | 383 kts | 143° |
| 2026-05-06 12:10 | 49.72073 | 15.64322 | 23160 ft | 380 kts | 143° |
| 2026-05-06 12:10 | 49.70153 | 15.67111 | 22616 ft | 378 kts | 143° |
| 2026-05-06 12:10 | 49.68242 | 15.69887 | 22106 ft | 375 kts | 143° |
| 2026-05-06 12:11 | 49.66374 | 15.72603 | 21604 ft | 373 kts | 143° |
| 2026-05-06 12:11 | 49.64492 | 15.75336 | 21105 ft | 370 kts | 143° |
| 2026-05-06 12:11 | 49.62620 | 15.78046 | 20608 ft | 368 kts | 143° |
| 2026-05-06 12:11 | 49.60755 | 15.80743 | 20116 ft | 365 kts | 143° |
| 2026-05-06 12:12 | 49.58909 | 15.83412 | 19615 ft | 363 kts | 143° |
| 2026-05-06 12:12 | 49.57070 | 15.86066 | 19139 ft | 361 kts | 143° |
| 2026-05-06 12:12 | 49.55236 | 15.88708 | 18670 ft | 359 kts | 143° |
| 2026-05-06 12:12 | 49.53417 | 15.91326 | 18207 ft | 357 kts | 143° |
| 2026-05-06 12:13 | 49.51604 | 15.93930 | 17700 ft | 355 kts | 143° |
| 2026-05-06 12:13 | 49.49801 | 15.96520 | 17246 ft | 353 kts | 143° |
| 2026-05-06 12:13 | 49.48008 | 15.99095 | 16830 ft | 351 kts | 142° |
| 2026-05-06 12:13 | 49.46229 | 16.01649 | 16434 ft | 349 kts | 142° |
| 2026-05-06 12:14 | 49.44463 | 16.04180 | 16054 ft | 346 kts | 143° |
| 2026-05-06 12:14 | 49.42704 | 16.06697 | 15653 ft | 344 kts | 143° |
| 2026-05-06 12:14 | 49.40983 | 16.09157 | 15225 ft | 341 kts | 143° |
| 2026-05-06 12:14 | 49.39246 | 16.11634 | 14809 ft | 339 kts | 143° |
| 2026-05-06 12:15 | 49.37525 | 16.14088 | 14391 ft | 337 kts | 143° |
| 2026-05-06 12:15 | 49.35809 | 16.16531 | 13982 ft | 335 kts | 143° |
| 2026-05-06 12:15 | 49.34107 | 16.18956 | 13560 ft | 333 kts | 143° |
| 2026-05-06 12:15 | 49.32415 | 16.21358 | 13113 ft | 329 kts | 143° |
| 2026-05-06 12:16 | 49.30626 | 16.23486 | 12833 ft | 323 kts | 151° |
| 2026-05-06 12:16 | 49.28696 | 16.25205 | 12831 ft | 320 kts | 158° |
| 2026-05-06 12:16 | 49.26679 | 16.26644 | 12834 ft | 318 kts | 164° |
| 2026-05-06 12:16 | 49.24542 | 16.27270 | 12833 ft | 310 kts | 183° |
| 2026-05-06 12:17 | 49.22396 | 16.27125 | 12838 ft | 309 kts | 187° |
| 2026-05-06 12:17 | 49.20248 | 16.26946 | 12837 ft | 309 kts | 186° |
| 2026-05-06 12:17 | 49.18099 | 16.26767 | 12837 ft | 309 kts | 186° |
| 2026-05-06 12:17 | 49.15947 | 16.26589 | 12840 ft | 309 kts | 186° |
| 2026-05-06 12:18 | 49.13800 | 16.26414 | 12835 ft | 309 kts | 186° |
| 2026-05-06 12:18 | 49.11656 | 16.26238 | 12838 ft | 308 kts | 186° |
| 2026-05-06 12:18 | 49.09511 | 16.26059 | 12834 ft | 309 kts | 186° |
| 2026-05-06 12:18 | 49.07359 | 16.25879 | 12836 ft | 310 kts | 186° |
| 2026-05-06 12:19 | 49.05208 | 16.25699 | 12836 ft | 310 kts | 186° |
| 2026-05-06 12:19 | 49.03060 | 16.25517 | 12833 ft | 309 kts | 186° |
| 2026-05-06 12:19 | 49.00909 | 16.25338 | 12830 ft | 309 kts | 186° |
| 2026-05-06 12:19 | 48.98761 | 16.25161 | 12832 ft | 309 kts | 186° |
| 2026-05-06 12:20 | 48.96610 | 16.24987 | 12827 ft | 310 kts | 186° |
| 2026-05-06 12:20 | 48.94456 | 16.24812 | 12832 ft | 310 kts | 186° |
| 2026-05-06 12:20 | 48.92335 | 16.24641 | 12832 ft | 309 kts | 186° |
| 2026-05-06 12:20 | 48.90182 | 16.24467 | 12825 ft | 309 kts | 186° |
| 2026-05-06 12:21 | 48.88027 | 16.24292 | 12827 ft | 310 kts | 186° |
| 2026-05-06 12:21 | 48.85875 | 16.24118 | 12648 ft | 310 kts | 186° |
| 2026-05-06 12:21 | 48.83724 | 16.23943 | 12382 ft | 308 kts | 186° |
| 2026-05-06 12:21 | 48.81578 | 16.23766 | 12132 ft | 307 kts | 186° |
| 2026-05-06 12:22 | 48.79449 | 16.23587 | 11874 ft | 306 kts | 186° |
| 2026-05-06 12:22 | 48.77326 | 16.23410 | 11616 ft | 306 kts | 186° |
| 2026-05-06 12:22 | 48.75196 | 16.23237 | 11363 ft | 305 kts | 185° |
| 2026-05-06 12:22 | 48.73077 | 16.23069 | 11116 ft | 304 kts | 186° |
| 2026-05-06 12:23 | 48.70996 | 16.22901 | 10870 ft | 303 kts | 186° |
| 2026-05-06 12:23 | 48.68893 | 16.22732 | 10625 ft | 302 kts | 186° |
| 2026-05-06 12:23 | 48.66792 | 16.22562 | 10380 ft | 302 kts | 186° |
| 2026-05-06 12:23 | 48.64710 | 16.22393 | 10084 ft | 298 kts | 186° |
| 2026-05-06 12:24 | 48.62658 | 16.22228 | 9873 ft | 289 kts | 186° |
| 2026-05-06 12:24 | 48.60697 | 16.22071 | 9746 ft | 277 kts | 186° |
| 2026-05-06 12:24 | 48.58799 | 16.21917 | 9488 ft | 271 kts | 186° |
| 2026-05-06 12:24 | 48.56922 | 16.21763 | 9114 ft | 268 kts | 186° |
| 2026-05-06 12:25 | 48.55065 | 16.21607 | 8722 ft | 266 kts | 186° |
| 2026-05-06 12:25 | 48.53222 | 16.21456 | 8582 ft | 265 kts | 186° |
| 2026-05-06 12:25 | 48.51378 | 16.21305 | 8449 ft | 265 kts | 186° |
| 2026-05-06 12:25 | 48.49534 | 16.21155 | 8318 ft | 265 kts | 185° |
| 2026-05-06 12:26 | 48.47693 | 16.21004 | 8196 ft | 264 kts | 185° |
| 2026-05-06 12:26 | 48.45862 | 16.20855 | 8057 ft | 263 kts | 185° |
| 2026-05-06 12:26 | 48.44045 | 16.20706 | 7671 ft | 260 kts | 185° |
| 2026-05-06 12:26 | 48.42238 | 16.20560 | 7292 ft | 259 kts | 185° |
| 2026-05-06 12:27 | 48.40447 | 16.20417 | 6903 ft | 257 kts | 185° |
| 2026-05-06 12:27 | 48.38666 | 16.20276 | 6530 ft | 255 kts | 184° |
| 2026-05-06 12:27 | 48.36922 | 16.20137 | 6163 ft | 253 kts | 184° |
| 2026-05-06 12:27 | 48.35178 | 16.19998 | 5993 ft | 251 kts | 184° |
| 2026-05-06 12:28 | 48.33442 | 16.19860 | 5994 ft | 243 kts | 184° |
| 2026-05-06 12:28 | 48.31811 | 16.19730 | 6000 ft | 226 kts | 184° |
| 2026-05-06 12:28 | 48.30305 | 16.19614 | 5996 ft | 208 kts | 184° |
| 2026-05-06 12:28 | 48.28896 | 16.19502 | 5890 ft | 201 kts | 183° |
| 2026-05-06 12:29 | 48.27518 | 16.19390 | 5731 ft | 195 kts | 184° |
| 2026-05-06 12:29 | 48.26173 | 16.19280 | 5453 ft | 193 kts | 184° |
| 2026-05-06 12:29 | 48.24831 | 16.19346 | 5150 ft | 195 kts | 170° |
| 2026-05-06 12:29 | 48.23580 | 16.20125 | 5014 ft | 195 kts | 149° |
| 2026-05-06 12:30 | 48.22594 | 16.21561 | 4999 ft | 203 kts | 129° |
| 2026-05-06 12:30 | 48.21923 | 16.23458 | 4914 ft | 208 kts | 120° |
| 2026-05-06 12:30 | 48.21304 | 16.25402 | 4690 ft | 207 kts | 120° |
| 2026-05-06 12:30 | 48.20683 | 16.27341 | 4437 ft | 207 kts | 121° |
| 2026-05-06 12:31 | 48.20050 | 16.29306 | 4145 ft | 212 kts | 120° |
| 2026-05-06 12:31 | 48.19405 | 16.31309 | 3859 ft | 216 kts | 121° |
| 2026-05-06 12:31 | 48.18750 | 16.33344 | 3551 ft | 215 kts | 121° |
| 2026-05-06 12:31 | 48.18108 | 16.35339 | 3265 ft | 209 kts | 122° |
| 2026-05-06 12:32 | 48.17493 | 16.37247 | 3030 ft | 198 kts | 121° |
| 2026-05-06 12:32 | 48.16906 | 16.39065 | 2738 ft | 189 kts | 120° |
| 2026-05-06 12:32 | 48.16359 | 16.40760 | 2477 ft | 174 kts | 122° |
| 2026-05-06 12:32 | 48.15849 | 16.42338 | 2251 ft | 161 kts | 122° |
| 2026-05-06 12:33 | 48.15373 | 16.43808 | 2053 ft | 151 kts | 123° |
| 2026-05-06 12:33 | 48.14938 | 16.45154 | 1847 ft | 135 kts | 125° |
| 2026-05-06 12:33 | 48.14545 | 16.46366 | 1679 ft | 126 kts | 123° |
| 2026-05-06 12:33 | 48.14166 | 16.47530 | 1492 ft | 124 kts | 123° |
| 2026-05-06 12:34 | 48.13795 | 16.48673 | 1334 ft | 120 kts | 123° |
| 2026-05-06 12:34 | 48.13441 | 16.49763 | 1160 ft | 117 kts | 121° |
| 2026-05-06 12:34 | 48.13083 | 16.50863 | 1000 ft | 117 kts | 119° |
| 2026-05-06 12:34 | 48.12726 | 16.51966 | 830 ft | 118 kts | 121° |
| 2026-05-06 12:35 | 48.12360 | 16.53102 | 676 ft | 119 kts | 121° |
| 2026-05-06 12:35 | 48.12019 | 16.54155 | 612 ft | 100 kts | 118° |
| 2026-05-06 12:35 | 48.11783 | 16.54866 | 612 ft | 64 kts | 116° |
| 2026-05-06 12:35 | 48.11576 | 16.55501 | 612 ft | 66 kts | 116° |
| 2026-05-06 12:36 | 48.11386 | 16.56087 | 617 ft | 59 kts | 116° |
| 2026-05-06 12:36 | 48.11224 | 16.56572 | 614 ft | 50 kts | 116° |
| 2026-05-06 12:36 | 48.11109 | 16.56938 | 615 ft | 24 kts | 115° |
| 2026-05-06 12:36 | 48.11088 | 16.57123 | 620 ft | 17 kts | 64° |
| 2026-05-06 12:37 | 48.11158 | 16.57218 | 609 ft | 12 kts | 27° |
| 2026-05-06 12:37 | 48.11235 | 16.57274 | 617 ft | 13 kts | 25° |
| 2026-05-06 12:37 | 48.11318 | 16.57332 | 614 ft | 14 kts | 26° |
| 2026-05-06 12:37 | 48.11408 | 16.57398 | 617 ft | 15 kts | 26° |
| 2026-05-06 12:38 | 48.11506 | 16.57462 | 609 ft | 16 kts | 11° |
| 2026-05-06 12:38 | 48.11612 | 16.57428 | 615 ft | 16 kts | 344° |
| 2026-05-06 12:38 | 48.11724 | 16.57379 | 617 ft | 17 kts | 344° |
| 2026-05-06 12:38 | 48.11823 | 16.57312 | 614 ft | 15 kts | 303° |
| 2026-05-06 12:39 | 48.11854 | 16.57169 | 609 ft | 15 kts | 274° |
| 2026-05-06 12:39 | 48.11887 | 16.57045 | 612 ft | 7 kts | 294° |
| 2026-05-06 12:39 | 48.11864 | 16.57012 | 615 ft | 5 kts | 203° |
| 2026-05-06 12:39 | 48.11829 | 16.56987 | 619 ft | 5 kts | 206° |
| 2026-05-06 12:40 | 48.11825 | 16.56984 | 617 ft | 0 kts | 206° |